Time;durP1;ratioP1;P1;durP2;ratioP2;P2;SDS_P1;SDS_P2;PMS_P1;PMS_P2;Temp;Humidity;BMP_temperature;BMP_pressure;BME280_temperature;BME280_humidity;BME280_pressure;Samples;Min_cycle;Max_cycle;Signal;HPM_P1;HPM_P2
2022/08/13 00:01:23;;;;;;;;;;;25.90;41.20;;;;;;5094480;28;19976;-66
2022/08/13 00:03:50;;;;;;;;;;;25.90;41.30;;;;;;5088487;28;19987;-59
2022/08/13 00:06:25;;;;;;;;;;;25.80;41.30;;;;;;5099606;28;19916;-60
2022/08/13 00:08:51;;;;;;;;;;;25.80;41.30;;;;;;5094554;28;19916;-59
2022/08/13 00:12:56;;;;;;;;;;;25.80;41.40;;;;;;5100782;28;19920;-60
2022/08/13 00:14:03;;;;;;;;;;;25.70;41.50;;;;;;5092336;28;20371;-60
2022/08/13 00:16:28;;;;;;;;;;;25.60;41.60;;;;;;5093879;28;20018;-66
2022/08/13 00:18:54;;;;;;;;;;;25.60;41.70;;;;;;5090879;28;19923;-59
2022/08/13 00:21:21;;;;;;;;;;;25.50;41.90;;;;;;5100040;28;19920;-60
2022/08/13 00:23:53;;;;;;;;;;;25.50;42.10;;;;;;5099851;28;19916;-59
2022/08/13 00:26:19;;;;;;;;;;;25.50;42.10;;;;;;5103097;28;19915;-60
2022/08/13 00:28:46;;;;;;;;;;;25.40;41.80;;;;;;5090648;28;19927;-60
2022/08/13 00:31:12;;;;;;;;;;;25.40;42.00;;;;;;5091023;28;19912;-59
2022/08/13 00:33:38;;;;;;;;;;;25.40;42.00;;;;;;5091471;28;19916;-59
2022/08/13 00:36:04;;;;;;;;;;;25.30;42.00;;;;;;5091548;28;19931;-65
2022/08/13 00:38:30;;;;;;;;;;;25.30;42.10;;;;;;5090865;28;19912;-66
2022/08/13 00:40:58;;;;;;;;;;;25.30;42.30;;;;;;5089675;28;19922;-66
2022/08/13 00:43:24;;;;;;;;;;;25.20;42.20;;;;;;5085737;28;19974;-60
2022/08/13 00:45:50;;;;;;;;;;;25.20;42.20;;;;;;5088310;28;19916;-66
2022/08/13 00:51:00;;;;;;;;;;;25.10;42.40;;;;;;5098504;28;19969;-66
2022/08/13 00:53:27;;;;;;;;;;;25.10;42.60;;;;;;5085393;28;19916;-60
2022/08/13 00:55:55;;;;;;;;;;;25.00;42.60;;;;;;5103378;27;20418;-59
2022/08/13 00:58:21;;;;;;;;;;;24.90;42.60;;;;;;5079520;28;19920;-59
2022/08/13 01:00:48;;;;;;;;;;;24.90;42.60;;;;;;5091712;28;19954;-59
2022/08/13 01:03:15;;;;;;;;;;;24.90;42.60;;;;;;5088020;28;19912;-60
2022/08/13 01:05:43;;;;;;;;;;;24.80;42.50;;;;;;5092220;28;19912;-59
2022/08/13 01:08:09;;;;;;;;;;;24.80;42.60;;;;;;5094627;28;19942;-60
2022/08/13 01:10:35;;;;;;;;;;;24.80;42.70;;;;;;5090093;28;20043;-61
2022/08/13 01:13:01;;;;;;;;;;;24.70;42.90;;;;;;5094986;28;20429;-60
2022/08/13 01:15:27;;;;;;;;;;;24.70;42.90;;;;;;5089042;28;19934;-60
2022/08/13 01:17:54;;;;;;;;;;;24.70;42.90;;;;;;5095270;28;19971;-60
2022/08/13 01:20:22;;;;;;;;;;;24.70;42.90;;;;;;5084933;28;19916;-59
2022/08/13 01:22:52;;;;;;;;;;;24.70;43.00;;;;;;5095035;28;20481;-59
2022/08/13 01:25:20;;;;;;;;;;;24.60;43.00;;;;;;5084687;28;20006;-59
2022/08/13 01:27:46;;;;;;;;;;;24.60;43.30;;;;;;5093338;28;19961;-65
2022/08/13 01:30:14;;;;;;;;;;;24.50;43.40;;;;;;5090106;28;19916;-67
2022/08/13 01:32:40;;;;;;;;;;;24.50;43.50;;;;;;5087702;28;19926;-66
2022/08/13 01:35:06;;;;;;;;;;;24.40;43.60;;;;;;5077338;28;19942;-66
2022/08/13 01:37:33;;;;;;;;;;;24.40;43.60;;;;;;5089565;28;19948;-67
2022/08/13 01:39:59;;;;;;;;;;;24.40;43.50;;;;;;5088789;28;19918;-66
2022/08/13 01:42:24;;;;;;;;;;;24.30;43.60;;;;;;5092333;28;20006;-67
2022/08/13 01:44:50;;;;;;;;;;;24.30;43.70;;;;;;5081984;28;19947;-67
2022/08/13 01:52:47;;;;;;;;;;;24.20;43.70;;;;;;5095477;28;19919;-66
2022/08/13 01:55:17;;;;;;;;;;;24.20;43.80;;;;;;5089742;28;20394;-67
2022/08/13 01:57:44;;;;;;;;;;;24.10;43.90;;;;;;5092680;28;19926;-66
2022/08/13 02:00:15;;;;;;;;;;;24.10;44.00;;;;;;5088242;28;20421;-66
2022/08/13 02:02:43;;;;;;;;;;;24.10;44.30;;;;;;5090639;28;19915;-66
2022/08/13 02:05:11;;;;;;;;;;;24.00;44.40;;;;;;5089906;28;19944;-59
2022/08/13 02:07:42;;;;;;;;;;;24.00;44.50;;;;;;5093298;28;19919;-59
2022/08/13 02:10:08;;;;;;;;;;;23.90;44.70;;;;;;5086186;28;20349;-66
2022/08/13 02:12:35;;;;;;;;;;;23.80;45.50;;;;;;5085882;28;19916;-60
2022/08/13 02:15:05;;;;;;;;;;;23.80;44.70;;;;;;5090449;28;19920;-60
2022/08/13 02:17:38;;;;;;;;;;;23.80;44.80;;;;;;5093094;28;19920;-60
2022/08/13 02:20:04;;;;;;;;;;;23.80;44.80;;;;;;5098134;28;19962;-60
2022/08/13 02:22:30;;;;;;;;;;;23.70;45.00;;;;;;5092316;28;19957;-60
2022/08/13 02:24:57;;;;;;;;;;;23.70;45.30;;;;;;5088088;28;20329;-60
2022/08/13 02:27:24;;;;;;;;;;;23.60;45.20;;;;;;5092971;28;20375;-60
2022/08/13 02:29:59;;;;;;;;;;;23.60;45.30;;;;;;5083482;28;20003;-67
2022/08/13 02:32:25;;;;;;;;;;;23.50;45.40;;;;;;5088842;28;20288;-66
2022/08/13 02:34:51;;;;;;;;;;;23.50;46.00;;;;;;5085338;28;20382;-66
2022/08/13 02:37:21;;;;;;;;;;;23.40;45.90;;;;;;5091178;28;19912;-60
2022/08/13 02:39:56;;;;;;;;;;;23.40;45.80;;;;;;5088958;28;20423;-60
2022/08/13 02:42:22;;;;;;;;;;;23.40;45.80;;;;;;5088551;28;19923;-62
2022/08/13 02:44:49;;;;;;;;;;;23.40;46.00;;;;;;5082090;28;20336;-60
2022/08/13 02:47:15;;;;;;;;;;;23.30;46.10;;;;;;5092166;28;19916;-60
2022/08/13 02:49:41;;;;;;;;;;;23.30;46.50;;;;;;5090491;28;19927;-60
2022/08/13 02:52:09;;;;;;;;;;;23.20;46.60;;;;;;5088309;28;19916;-60
2022/08/13 02:54:42;;;;;;;;;;;23.20;46.60;;;;;;5085925;28;20001;-60
2022/08/13 02:57:08;;;;;;;;;;;23.20;46.70;;;;;;5087923;28;19922;-60
2022/08/13 02:59:35;;;;;;;;;;;23.10;46.70;;;;;;5085787;28;19922;-60
2022/08/13 03:02:00;;;;;;;;;;;23.10;46.90;;;;;;5086214;28;19912;-60
2022/08/13 03:04:26;;;;;;;;;;;23.00;47.10;;;;;;5088352;28;19961;-60
2022/08/13 03:06:52;;;;;;;;;;;23.00;47.60;;;;;;5091800;28;19953;-66
2022/08/13 03:09:20;;;;;;;;;;;22.90;48.00;;;;;;5090751;28;19916;-66
2022/08/13 03:11:47;;;;;;;;;;;22.90;48.10;;;;;;5094139;28;19928;-60
2022/08/13 03:14:12;;;;;;;;;;;22.80;48.60;;;;;;5084971;28;19913;-66
2022/08/13 03:16:41;;;;;;;;;;;22.80;48.80;;;;;;5092887;28;19973;-66
2022/08/13 03:19:07;;;;;;;;;;;22.70;49.00;;;;;;5093157;28;19970;-66
2022/08/13 03:21:35;;;;;;;;;;;22.70;49.20;;;;;;5089558;28;20456;-60
2022/08/13 03:24:02;;;;;;;;;;;22.60;49.00;;;;;;5103139;28;19912;-60
2022/08/13 03:26:30;;;;;;;;;;;22.60;49.20;;;;;;5088261;28;19915;-59
2022/08/13 03:28:56;;;;;;;;;;;22.50;49.40;;;;;;5091995;28;20018;-60
2022/08/13 03:31:23;;;;;;;;;;;22.50;49.40;;;;;;5086227;28;20034;-60
2022/08/13 03:33:50;;;;;;;;;;;22.50;49.60;;;;;;5086574;28;19916;-60
2022/08/13 03:36:15;;;;;;;;;;;22.40;49.50;;;;;;5093663;28;19916;-66
2022/08/13 03:38:42;;;;;;;;;;;22.40;49.50;;;;;;5093781;28;19931;-66
2022/08/13 03:41:14;;;;;;;;;;;22.40;49.70;;;;;;5095768;28;19914;-59
2022/08/13 03:43:42;;;;;;;;;;;22.40;49.90;;;;;;5095843;28;19967;-66
2022/08/13 03:46:15;;;;;;;;;;;22.30;50.10;;;;;;5096291;28;19960;-66
2022/08/13 03:48:41;;;;;;;;;;;22.30;50.10;;;;;;5094211;28;19951;-65
2022/08/13 03:51:07;;;;;;;;;;;22.30;50.20;;;;;;5100420;28;19958;-65
2022/08/13 03:53:36;;;;;;;;;;;22.20;50.70;;;;;;5098617;28;19916;-65
2022/08/13 03:56:03;;;;;;;;;;;22.20;50.10;;;;;;5096066;28;20433;-62
2022/08/13 03:58:29;;;;;;;;;;;22.20;50.00;;;;;;5093764;28;19920;-67
2022/08/13 04:00:57;;;;;;;;;;;22.20;50.00;;;;;;5086432;28;20449;-67
2022/08/13 04:03:30;;;;;;;;;;;22.20;50.00;;;;;;5090080;28;20345;-66
2022/08/13 04:05:58;;;;;;;;;;;22.10;50.10;;;;;;5089390;28;20011;-66
2022/08/13 04:08:28;;;;;;;;;;;22.10;50.10;;;;;;5090834;28;19919;-66
2022/08/13 04:10:54;;;;;;;;;;;22.10;50.10;;;;;;5094188;28;20010;-60
2022/08/13 04:13:20;;;;;;;;;;;22.00;50.30;;;;;;5099094;28;20019;-60
2022/08/13 04:15:46;;;;;;;;;;;22.00;50.70;;;;;;5093312;28;20361;-66
2022/08/13 04:18:12;;;;;;;;;;;22.00;50.80;;;;;;5092267;28;19998;-66
2022/08/13 04:20:54;;;;;;;;;;;22.00;51.20;;;;;;5089211;28;19989;-66
2022/08/13 04:23:20;;;;;;;;;;;22.00;51.40;;;;;;5085669;28;19921;-66
2022/08/13 04:25:50;;;;;;;;;;;21.90;51.70;;;;;;5091003;28;19922;-66
2022/08/13 04:28:16;;;;;;;;;;;21.90;51.60;;;;;;5083525;28;19927;-66
2022/08/13 04:30:42;;;;;;;;;;;21.90;51.70;;;;;;5089586;28;20520;-66
2022/08/13 04:33:09;;;;;;;;;;;21.90;51.80;;;;;;5089199;28;19997;-59
2022/08/13 04:35:35;;;;;;;;;;;21.90;52.30;;;;;;5081470;28;20583;-66
2022/08/13 04:38:01;;;;;;;;;;;21.80;52.40;;;;;;5087684;28;20003;-66
2022/08/13 04:40:26;;;;;;;;;;;21.80;52.60;;;;;;5089512;28;19916;-66
2022/08/13 04:42:53;;;;;;;;;;;21.80;52.70;;;;;;5093258;28;19924;-66
2022/08/13 04:45:19;;;;;;;;;;;21.80;52.70;;;;;;5087446;28;19916;-66
2022/08/13 04:47:45;;;;;;;;;;;21.80;52.70;;;;;;5095064;28;19927;-59
2022/08/13 04:50:11;;;;;;;;;;;21.80;52.80;;;;;;5087257;28;19920;-60
2022/08/13 04:52:38;;;;;;;;;;;21.80;53.00;;;;;;5089168;28;19912;-60
2022/08/13 04:55:04;;;;;;;;;;;21.80;53.00;;;;;;5088317;28;19920;-60
2022/08/13 04:57:30;;;;;;;;;;;21.80;53.00;;;;;;5084498;28;20410;-60
2022/08/13 04:59:55;;;;;;;;;;;21.80;53.20;;;;;;5083319;28;19984;-59
2022/08/13 05:02:21;;;;;;;;;;;21.80;53.40;;;;;;5096141;28;19920;-59
2022/08/13 05:04:48;;;;;;;;;;;21.90;53.50;;;;;;5085478;28;19923;-65
2022/08/13 05:07:15;;;;;;;;;;;21.90;53.60;;;;;;5090778;28;20020;-65
2022/08/13 05:09:41;;;;;;;;;;;22.00;53.90;;;;;;5090325;28;19965;-65
2022/08/13 05:12:07;;;;;;;;;;;22.00;53.90;;;;;;5088779;28;19957;-59
2022/08/13 05:14:35;;;;;;;;;;;22.10;53.80;;;;;;5089518;28;19923;-60
2022/08/13 05:17:03;;;;;;;;;;;22.10;54.10;;;;;;5084553;28;19931;-59
2022/08/13 05:19:29;;;;;;;;;;;22.20;54.10;;;;;;5091863;28;19918;-65
2022/08/13 05:21:55;;;;;;;;;;;22.20;54.10;;;;;;5093136;28;19916;-65
2022/08/13 05:24:22;;;;;;;;;;;22.30;53.90;;;;;;5087469;28;20282;-59
2022/08/13 05:26:48;;;;;;;;;;;22.40;54.10;;;;;;5092366;28;19931;-59
2022/08/13 05:29:14;;;;;;;;;;;22.40;53.80;;;;;;5089166;28;20484;-60
2022/08/13 05:31:40;;;;;;;;;;;22.50;53.50;;;;;;5082926;28;19924;-65
2022/08/13 05:34:06;;;;;;;;;;;22.60;53.40;;;;;;5089708;28;20387;-65
2022/08/13 05:36:32;;;;;;;;;;;22.70;53.00;;;;;;5091442;28;19962;-65
2022/08/13 05:38:58;;;;;;;;;;;22.80;52.70;;;;;;5086834;28;19947;-66
2022/08/13 05:41:27;;;;;;;;;;;22.90;52.20;;;;;;5090852;28;19923;-66
2022/08/13 05:43:53;;;;;;;;;;;23.10;51.70;;;;;;5086401;28;19916;-66
2022/08/13 05:46:19;;;;;;;;;;;23.20;51.00;;;;;;5091126;28;20297;-59
2022/08/13 05:48:56;;;;;;;;;;;23.30;50.50;;;;;;5092501;28;19916;-59
2022/08/13 05:51:25;;;;;;;;;;;23.40;50.20;;;;;;5081678;28;19916;-59
2022/08/13 05:53:54;;;;;;;;;;;23.50;49.90;;;;;;5094000;28;20580;-65
2022/08/13 05:56:23;;;;;;;;;;;23.50;49.20;;;;;;5082428;28;20017;-59
2022/08/13 05:58:49;;;;;;;;;;;23.60;48.60;;;;;;5088859;28;19931;-66
2022/08/13 06:04:02;;;;;;;;;;;23.70;47.90;;;;;;5094001;28;20130;-65
2022/08/13 06:06:28;;;;;;;;;;;23.80;47.60;;;;;;5083209;28;20341;-65
2022/08/13 06:08:58;;;;;;;;;;;23.90;47.30;;;;;;5087648;28;19912;-65
2022/08/13 06:11:25;;;;;;;;;;;23.90;47.00;;;;;;5089471;28;19917;-65
2022/08/13 06:13:50;;;;;;;;;;;24.10;46.90;;;;;;5086905;28;19916;-59
2022/08/13 06:16:20;;;;;;;;;;;24.10;46.60;;;;;;5093247;28;19912;-65
2022/08/13 06:18:49;;;;;;;;;;;24.20;46.40;;;;;;5094416;28;19943;-65
2022/08/13 06:21:16;;;;;;;;;;;24.20;46.10;;;;;;5083466;28;20447;-65
2022/08/13 06:23:44;;;;;;;;;;;24.20;45.90;;;;;;5083807;28;19920;-65
2022/08/13 06:26:11;;;;;;;;;;;24.30;45.70;;;;;;5080893;28;20011;-65
2022/08/13 06:28:37;;;;;;;;;;;24.40;45.60;;;;;;5085504;28;19912;-65
2022/08/13 06:31:07;;;;;;;;;;;24.40;45.40;;;;;;5085859;28;19931;-62
2022/08/13 06:33:34;;;;;;;;;;;24.50;45.30;;;;;;5088645;28;19965;-59
2022/08/13 06:36:01;;;;;;;;;;;24.50;45.00;;;;;;5088607;28;20416;-60
2022/08/13 06:38:26;;;;;;;;;;;24.60;44.90;;;;;;5081037;28;19912;-61
2022/08/13 06:40:54;;;;;;;;;;;24.70;44.90;;;;;;5085516;28;19974;-61
2022/08/13 06:43:21;;;;;;;;;;;24.70;44.80;;;;;;5082096;28;19912;-62
2022/08/13 06:45:46;;;;;;;;;;;24.90;44.70;;;;;;5094289;28;19912;-63
2022/08/13 06:48:13;;;;;;;;;;;24.90;44.10;;;;;;5092619;28;19931;-64
2022/08/13 06:50:38;;;;;;;;;;;25.00;44.10;;;;;;5087977;28;20410;-63
2022/08/13 06:53:04;;;;;;;;;;;25.00;43.70;;;;;;5093338;28;20030;-63
2022/08/13 06:55:30;;;;;;;;;;;25.10;43.90;;;;;;5100280;28;19934;-63
2022/08/13 06:57:56;;;;;;;;;;;25.10;43.70;;;;;;5104383;28;19928;-63
2022/08/13 07:00:25;;;;;;;;;;;25.20;43.70;;;;;;5089686;28;19999;-63
2022/08/13 07:02:50;;;;;;;;;;;25.20;43.60;;;;;;5100510;28;19924;-63
2022/08/13 07:05:16;;;;;;;;;;;25.30;43.50;;;;;;5096163;28;20409;-63
2022/08/13 07:07:45;;;;;;;;;;;25.40;43.50;;;;;;5104131;28;19980;-64
2022/08/13 07:10:13;;;;;;;;;;;25.50;43.30;;;;;;5094051;28;19924;-63
2022/08/13 07:12:41;;;;;;;;;;;25.50;43.20;;;;;;5091166;28;19920;-61
2022/08/13 07:15:15;;;;;;;;;;;25.50;43.30;;;;;;5103847;28;19962;-61
2022/08/13 07:17:41;;;;;;;;;;;25.50;43.20;;;;;;5102856;28;20374;-61
2022/08/13 07:20:07;;;;;;;;;;;25.60;43.10;;;;;;5096414;28;19975;-61
2022/08/13 07:22:34;;;;;;;;;;;25.70;43.20;;;;;;5098623;28;20375;-62
2022/08/13 07:25:00;;;;;;;;;;;25.70;43.20;;;;;;5096212;28;19920;-61
2022/08/13 07:27:26;;;;;;;;;;;25.80;43.20;;;;;;5102477;28;19959;-61
2022/08/13 07:29:53;;;;;;;;;;;25.90;43.20;;;;;;5097245;28;19974;-62
2022/08/13 07:32:19;;;;;;;;;;;26.00;43.20;;;;;;5091074;28;19963;-64
2022/08/13 07:34:45;;;;;;;;;;;26.00;43.10;;;;;;5103478;28;20320;-61
2022/08/13 07:37:17;;;;;;;;;;;26.10;42.90;;;;;;5103953;28;19923;-61
2022/08/13 07:39:44;;;;;;;;;;;26.10;42.90;;;;;;5101316;28;19915;-60
2022/08/13 07:42:10;;;;;;;;;;;26.20;43.00;;;;;;5093015;28;20391;-59
2022/08/13 07:44:35;;;;;;;;;;;26.30;42.90;;;;;;5098794;28;19920;-62
2022/08/13 07:47:01;;;;;;;;;;;26.30;42.70;;;;;;5102976;28;19920;-61
2022/08/13 07:49:27;;;;;;;;;;;26.40;42.70;;;;;;5095732;28;20346;-61
2022/08/13 07:51:53;;;;;;;;;;;26.40;42.70;;;;;;5094281;28;19924;-61
2022/08/13 07:54:19;;;;;;;;;;;26.50;42.80;;;;;;5093593;28;20381;-59
2022/08/13 07:56:47;;;;;;;;;;;26.60;42.70;;;;;;5087382;28;19950;-59
2022/08/13 07:59:15;;;;;;;;;;;26.70;42.60;;;;;;5093839;28;19932;-59
2022/08/13 08:01:49;;;;;;;;;;;26.80;42.60;;;;;;5093657;28;19920;-59
2022/08/13 08:04:15;;;;;;;;;;;26.90;42.60;;;;;;5096619;28;19916;-59
2022/08/13 08:06:42;;;;;;;;;;;26.90;42.40;;;;;;5095530;28;19966;-59
2022/08/13 08:09:10;;;;;;;;;;;27.10;42.40;;;;;;5093906;28;19916;-59
2022/08/13 08:14:21;;;;;;;;;;;27.20;42.10;;;;;;5098359;28;19962;-62
2022/08/13 08:16:48;;;;;;;;;;;27.30;42.00;;;;;;5083804;28;19912;-62
2022/08/13 08:19:14;;;;;;;;;;;27.40;41.80;;;;;;5087012;28;20545;-62
2022/08/13 08:21:40;;;;;;;;;;;27.50;41.70;;;;;;5079396;28;19981;-62
2022/08/13 08:24:06;;;;;;;;;;;27.50;41.60;;;;;;5085918;28;20001;-59
2022/08/13 08:26:33;;;;;;;;;;;27.60;41.50;;;;;;5090404;28;19928;-59
2022/08/13 08:29:00;;;;;;;;;;;27.80;41.40;;;;;;5091346;28;19962;-59
2022/08/13 08:31:26;;;;;;;;;;;27.90;41.30;;;;;;5090080;28;19927;-62
2022/08/13 08:33:54;;;;;;;;;;;28.00;40.90;;;;;;5091392;28;20320;-59
2022/08/13 08:36:20;;;;;;;;;;;28.00;40.80;;;;;;5092246;28;19920;-59
2022/08/13 08:44:34;;;;;;;;;;;28.40;40.50;;;;;;5091841;28;19970;-60
2022/08/13 08:47:00;;;;;;;;;;;28.50;40.30;;;;;;5093555;28;19923;-59
2022/08/13 08:49:26;;;;;;;;;;;28.50;40.30;;;;;;5097934;28;20002;-59
2022/08/13 08:51:52;;;;;;;;;;;28.60;40.20;;;;;;5087260;28;20043;-60
2022/08/13 08:54:18;;;;;;;;;;;28.70;40.20;;;;;;5081176;28;20001;-62
2022/08/13 08:56:45;;;;;;;;;;;28.80;40.10;;;;;;5086756;28;19916;-59
2022/08/13 08:59:13;;;;;;;;;;;28.90;40.00;;;;;;5087091;28;20394;-64
2022/08/13 09:01:40;;;;;;;;;;;28.90;39.60;;;;;;5083138;28;19924;-59
2022/08/13 09:04:07;;;;;;;;;;;29.00;39.50;;;;;;5088911;28;20015;-63
2022/08/13 09:06:32;;;;;;;;;;;29.00;39.50;;;;;;5088814;28;19912;-62
2022/08/13 09:09:00;;;;;;;;;;;29.10;39.40;;;;;;5089331;28;20371;-62
2022/08/13 09:11:28;;;;;;;;;;;29.20;39.30;;;;;;5090522;28;19920;-59
2022/08/13 09:13:55;;;;;;;;;;;29.30;38.90;;;;;;5091935;28;19927;-60
2022/08/13 09:16:21;;;;;;;;;;;29.40;38.80;;;;;;5087328;28;19922;-60
2022/08/13 09:18:47;;;;;;;;;;;29.40;38.80;;;;;;5092662;28;19947;-60
2022/08/13 09:21:13;;;;;;;;;;;29.60;38.90;;;;;;5087956;28;19916;-60
2022/08/13 09:23:45;;;;;;;;;;;29.70;38.50;;;;;;5090457;28;19942;-62
2022/08/13 09:26:10;;;;;;;;;;;29.80;38.30;;;;;;5093018;28;20394;-62
2022/08/13 09:28:37;;;;;;;;;;;29.80;38.10;;;;;;5091094;28;19956;-62
2022/08/13 09:31:02;;;;;;;;;;;29.90;38.00;;;;;;5086117;28;19916;-62
2022/08/13 09:33:28;;;;;;;;;;;30.00;38.00;;;;;;5095187;28;20416;-60
2022/08/13 09:35:54;;;;;;;;;;;30.00;37.80;;;;;;5088540;28;19920;-60
2022/08/13 09:38:21;;;;;;;;;;;30.10;37.80;;;;;;5085574;28;19916;-60
2022/08/13 09:40:49;;;;;;;;;;;30.20;37.70;;;;;;5083739;28;19923;-60
2022/08/13 09:43:20;;;;;;;;;;;30.30;37.70;;;;;;5087688;28;20635;-60
2022/08/13 09:45:45;;;;;;;;;;;30.40;37.70;;;;;;5088663;28;19923;-61
2022/08/13 09:48:12;;;;;;;;;;;30.50;37.40;;;;;;5088924;28;20022;-61
2022/08/13 09:50:39;;;;;;;;;;;30.60;37.20;;;;;;5092452;28;19927;-60
2022/08/13 09:53:05;;;;;;;;;;;30.70;37.00;;;;;;5090128;28;19924;-61
2022/08/13 09:55:31;;;;;;;;;;;30.80;37.00;;;;;;5085332;28;20090;-60
2022/08/13 09:57:59;;;;;;;;;;;31.00;36.70;;;;;;5086685;28;19930;-60
2022/08/13 10:00:27;;;;;;;;;;;31.00;36.70;;;;;;5085051;28;19915;-60
2022/08/13 10:02:56;;;;;;;;;;;31.20;36.50;;;;;;5086663;28;20496;-62
2022/08/13 10:05:22;;;;;;;;;;;31.30;36.10;;;;;;5086468;28;19994;-61
2022/08/13 10:07:48;;;;;;;;;;;31.40;35.80;;;;;;5084319;28;19917;-62
2022/08/13 10:10:14;;;;;;;;;;;31.50;35.40;;;;;;5088556;28;19919;-61
2022/08/13 10:12:40;;;;;;;;;;;31.60;35.30;;;;;;5086457;28;20002;-61
2022/08/13 10:15:08;;;;;;;;;;;31.60;35.40;;;;;;5086559;28;20359;-62
2022/08/13 10:17:45;;;;;;;;;;;31.70;35.30;;;;;;5089828;28;19920;-62
2022/08/13 10:20:11;;;;;;;;;;;31.80;35.10;;;;;;5085476;28;19969;-61
2022/08/13 10:22:36;;;;;;;;;;;31.90;35.00;;;;;;5095278;28;20329;-63
2022/08/13 10:25:02;;;;;;;;;;;31.90;35.00;;;;;;5097735;28;20286;-63
2022/08/13 10:27:28;;;;;;;;;;;31.90;35.00;;;;;;5097653;28;19984;-64
2022/08/13 10:29:53;;;;;;;;;;;32.00;34.60;;;;;;5091353;28;20405;-63
2022/08/13 10:32:19;;;;;;;;;;;32.10;34.60;;;;;;5093762;28;20027;-63
2022/08/13 10:34:44;;;;;;;;;;;32.10;34.40;;;;;;5090721;28;19919;-63
2022/08/13 10:37:10;;;;;;;;;;;32.20;34.30;;;;;;5084912;28;19943;-63
2022/08/13 10:39:35;;;;;;;;;;;32.40;34.20;;;;;;5095785;28;19969;-61
2022/08/13 10:42:02;;;;;;;;;;;32.60;34.10;;;;;;5094586;28;19921;-61
2022/08/13 10:44:27;;;;;;;;;;;32.60;33.50;;;;;;5090475;28;20325;-61
2022/08/13 10:46:53;;;;;;;;;;;32.60;33.50;;;;;;5095034;28;19965;-63
2022/08/13 10:49:18;;;;;;;;;;;32.60;33.20;;;;;;5098178;28;19916;-63
2022/08/13 10:51:44;;;;;;;;;;;32.80;33.20;;;;;;5091666;28;19916;-63
2022/08/13 10:54:10;;;;;;;;;;;32.90;33.00;;;;;;5100506;28;20576;-63
2022/08/13 10:56:36;;;;;;;;;;;33.00;33.10;;;;;;5090279;28;19924;-63
2022/08/13 10:59:03;;;;;;;;;;;33.20;33.10;;;;;;5087562;28;19978;-63
2022/08/13 11:01:30;;;;;;;;;;;33.30;32.90;;;;;;5087255;28;19916;-63
2022/08/13 11:04:02;;;;;;;;;;;33.50;32.10;;;;;;5080945;28;20018;-63
2022/08/13 11:06:28;;;;;;;;;;;33.60;31.60;;;;;;5085232;28;19970;-63
2022/08/13 11:08:54;;;;;;;;;;;33.70;31.60;;;;;;5087139;28;19920;-63
2022/08/13 11:11:21;;;;;;;;;;;33.70;31.80;;;;;;5096417;28;20417;-63
2022/08/13 11:13:47;;;;;;;;;;;33.70;31.70;;;;;;5085191;28;20011;-63
2022/08/13 11:18:58;;;;;;;;;;;33.80;31.20;;;;;;5091852;28;19909;-63
2022/08/13 11:21:25;;;;;;;;;;;33.90;31.40;;;;;;5088947;28;19943;-62
2022/08/13 11:23:50;;;;;;;;;;;34.10;31.40;;;;;;5083118;28;19916;-62
2022/08/13 11:26:16;;;;;;;;;;;34.20;31.20;;;;;;5094242;28;19918;-63
2022/08/13 11:28:41;;;;;;;;;;;34.50;31.00;;;;;;5089592;28;19997;-63
2022/08/13 11:31:07;;;;;;;;;;;34.60;30.70;;;;;;5082151;28;19927;-63
2022/08/13 11:33:32;;;;;;;;;;;34.70;30.70;;;;;;5084002;28;19920;-61
2022/08/13 11:35:58;;;;;;;;;;;34.70;30.70;;;;;;5091318;28;19958;-63
2022/08/13 11:38:23;;;;;;;;;;;34.80;30.60;;;;;;5094554;28;20393;-63
2022/08/13 11:40:51;;;;;;;;;;;34.90;30.60;;;;;;5084931;28;19926;-64
2022/08/13 11:43:17;;;;;;;;;;;34.80;30.40;;;;;;5091077;28;19912;-63
2022/08/13 11:45:43;;;;;;;;;;;35.00;30.40;;;;;;5091478;28;20414;-63
2022/08/13 11:48:08;;;;;;;;;;;35.10;30.00;;;;;;5096882;28;19983;-63
2022/08/13 11:50:34;;;;;;;;;;;35.10;29.50;;;;;;5090387;28;19944;-63
2022/08/13 11:53:00;;;;;;;;;;;35.10;29.50;;;;;;5092487;28;19927;-62
2022/08/13 11:55:25;;;;;;;;;;;35.20;29.50;;;;;;5100782;28;19915;-61
2022/08/13 11:58:01;;;;;;;;;;;35.20;29.90;;;;;;5086255;28;19924;-61
2022/08/13 12:00:27;;;;;;;;;;;35.30;29.50;;;;;;5086987;28;19908;-63
2022/08/13 12:02:52;;;;;;;;;;;35.40;29.40;;;;;;5089125;28;20003;-63
2022/08/13 12:05:18;;;;;;;;;;;35.50;29.30;;;;;;5087346;28;19939;-64
2022/08/13 12:07:44;;;;;;;;;;;35.80;29.00;;;;;;5080652;28;20003;-61
2022/08/13 12:10:10;;;;;;;;;;;36.00;29.10;;;;;;5087189;28;19920;-63
2022/08/13 12:12:36;;;;;;;;;;;36.20;29.10;;;;;;5085656;28;19920;-64
2022/08/13 12:15:01;;;;;;;;;;;36.50;28.80;;;;;;5097079;28;19916;-63
2022/08/13 12:17:27;;;;;;;;;;;36.50;28.50;;;;;;5089104;28;19920;-63
2022/08/13 12:19:53;;;;;;;;;;;36.50;28.10;;;;;;5086884;28;19924;-63
2022/08/13 12:22:18;;;;;;;;;;;36.50;28.10;;;;;;5073258;28;19916;-63
2022/08/13 12:24:44;;;;;;;;;;;36.60;27.80;;;;;;5098091;28;19987;-63
2022/08/13 12:27:09;;;;;;;;;;;36.50;27.40;;;;;;5085484;28;20393;-63
2022/08/13 12:29:35;;;;;;;;;;;36.60;27.60;;;;;;5087328;28;20018;-63
2022/08/13 12:32:00;;;;;;;;;;;36.70;27.80;;;;;;5083470;28;20355;-63
2022/08/13 12:34:26;;;;;;;;;;;36.80;27.80;;;;;;5088753;28;20011;-63
2022/08/13 12:36:51;;;;;;;;;;;36.90;27.70;;;;;;5079788;28;19947;-63
2022/08/13 12:39:17;;;;;;;;;;;36.90;27.80;;;;;;5095265;28;19920;-63
2022/08/13 12:41:42;;;;;;;;;;;37.00;27.90;;;;;;5086169;28;19962;-63
2022/08/13 12:44:09;;;;;;;;;;;37.10;27.70;;;;;;5082576;28;19939;-67
2022/08/13 12:46:34;;;;;;;;;;;37.20;27.70;;;;;;5082655;28;19957;-67
2022/08/13 12:49:00;;;;;;;;;;;37.50;27.70;;;;;;5091130;28;20661;-67
2022/08/13 12:51:26;;;;;;;;;;;37.60;27.70;;;;;;5085627;28;19932;-67
2022/08/13 12:53:51;;;;;;;;;;;37.80;27.70;;;;;;5086815;28;19923;-67
2022/08/13 12:56:17;;;;;;;;;;;37.90;27.50;;;;;;5082463;28;19912;-67
2022/08/13 12:58:42;;;;;;;;;;;38.00;27.50;;;;;;5084650;28;20829;-67
2022/08/13 13:01:08;;;;;;;;;;;38.20;27.10;;;;;;5084240;28;20351;-67
2022/08/13 13:03:34;;;;;;;;;;;38.30;27.30;;;;;;5085543;28;20041;-67
2022/08/13 13:05:59;;;;;;;;;;;38.40;27.20;;;;;;5089267;28;19916;-67
2022/08/13 13:08:26;;;;;;;;;;;38.30;26.60;;;;;;5089325;28;19989;-67
2022/08/13 13:10:52;;;;;;;;;;;38.30;26.60;;;;;;5081883;28;19963;-67
2022/08/13 13:13:21;;;;;;;;;;;38.10;26.70;;;;;;5088019;28;19951;-67
2022/08/13 13:15:47;;;;;;;;;;;38.00;26.90;;;;;;5094884;28;19920;-67
2022/08/13 13:18:14;;;;;;;;;;;38.10;26.90;;;;;;5100413;28;19911;-60
2022/08/13 13:20:43;;;;;;;;;;;38.20;26.90;;;;;;5093010;27;19916;-67
2022/08/13 13:23:13;;;;;;;;;;;38.40;26.60;;;;;;5099798;28;19924;-67
2022/08/13 13:25:43;;;;;;;;;;;38.40;26.70;;;;;;5089173;28;19916;-67
2022/08/13 13:28:10;;;;;;;;;;;38.60;26.70;;;;;;5089470;28;19927;-66
2022/08/13 13:30:36;;;;;;;;;;;38.60;26.60;;;;;;5087807;28;19963;-61
2022/08/13 13:33:02;;;;;;;;;;;38.70;26.60;;;;;;5090483;28;20263;-61
2022/08/13 13:35:28;;;;;;;;;;;38.70;26.50;;;;;;5088543;28;19987;-61
2022/08/13 13:37:54;;;;;;;;;;;38.80;26.40;;;;;;5087836;28;20619;-61
2022/08/13 13:40:19;;;;;;;;;;;38.70;26.40;;;;;;5086364;28;19943;-61
2022/08/13 13:42:45;;;;;;;;;;;38.90;26.60;;;;;;5084149;28;20383;-61
2022/08/13 13:45:10;;;;;;;;;;;39.00;26.50;;;;;;5089948;28;19916;-61
2022/08/13 13:47:36;;;;;;;;;;;39.10;26.50;;;;;;5090408;28;19912;-60
2022/08/13 13:50:06;;;;;;;;;;;39.20;26.60;;;;;;5089626;28;20422;-61
2022/08/13 13:52:32;;;;;;;;;;;39.30;26.40;;;;;;5089882;28;19962;-61
2022/08/13 13:54:58;;;;;;;;;;;39.40;26.20;;;;;;5089798;28;19912;-61
2022/08/13 13:57:24;;;;;;;;;;;39.50;25.80;;;;;;5080159;28;19925;-67
2022/08/13 13:59:50;;;;;;;;;;;39.60;25.90;;;;;;5084992;28;20494;-68
2022/08/13 14:02:16;;;;;;;;;;;39.60;25.90;;;;;;5079248;28;20012;-67
2022/08/13 14:04:44;;;;;;;;;;;39.70;26.00;;;;;;5082631;28;19923;-67
2022/08/13 14:07:10;;;;;;;;;;;39.60;25.80;;;;;;5085659;28;19973;-67
2022/08/13 14:09:37;;;;;;;;;;;39.60;25.80;;;;;;5088067;28;19912;-67
2022/08/13 14:12:03;;;;;;;;;;;39.60;25.80;;;;;;5099953;28;19949;-61
2022/08/13 14:14:29;;;;;;;;;;;39.60;25.70;;;;;;5071412;28;19920;-61
2022/08/13 14:16:54;;;;;;;;;;;39.40;25.90;;;;;;5080733;28;19939;-67
2022/08/13 14:19:20;;;;;;;;;;;39.40;25.90;;;;;;5082614;28;19909;-67
2022/08/13 14:21:47;;;;;;;;;;;39.50;25.70;;;;;;5086780;28;19924;-61
2022/08/13 14:24:12;;;;;;;;;;;39.50;25.20;;;;;;5084016;28;19915;-67
2022/08/13 14:26:38;;;;;;;;;;;39.40;25.30;;;;;;5086198;28;19920;-67
2022/08/13 14:29:05;;;;;;;;;;;39.40;25.40;;;;;;5084262;28;19924;-67
2022/08/13 14:31:32;;;;;;;;;;;39.30;25.60;;;;;;5083427;28;19923;-67
2022/08/13 14:33:58;;;;;;;;;;;39.40;25.80;;;;;;5082622;28;20299;-67
2022/08/13 14:36:28;;;;;;;;;;;39.50;25.90;;;;;;5098680;28;19955;-67